sensor_id;sensor_type;location;lat;lon;timestamp;pressure;altitude;pressure_sealevel;temperature;humidity
74075;BME280;62428;51.412;5.432;2023-11-21T00:00:46;100934.81;;;6.64;100.00
74075;BME280;62428;51.412;5.432;2023-11-21T00:03:12;100940.97;;;6.64;100.00
74075;BME280;62428;51.412;5.432;2023-11-21T00:05:40;100930.28;;;6.64;100.00
74075;BME280;62428;51.412;5.432;2023-11-21T00:08:07;100935.63;;;6.64;100.00
74075;BME280;62428;51.412;5.432;2023-11-21T00:10:32;100936.44;;;6.65;100.00
74075;BME280;62428;51.412;5.432;2023-11-21T00:12:57;100939.91;;;6.65;100.00
74075;BME280;62428;51.412;5.432;2023-11-21T00:15:23;100943.63;;;6.64;100.00
74075;BME280;62428;51.412;5.432;2023-11-21T00:17:48;100944.72;;;6.63;100.00
74075;BME280;62428;51.412;5.432;2023-11-21T00:20:14;100945.50;;;6.64;100.00
74075;BME280;62428;51.412;5.432;2023-11-21T00:22:39;100943.63;;;6.64;100.00
74075;BME280;62428;51.412;5.432;2023-11-21T00:25:06;100944.72;;;6.63;100.00
74075;BME280;62428;51.412;5.432;2023-11-21T00:27:34;100949.25;;;6.63;100.00
74075;BME280;62428;51.412;5.432;2023-11-21T00:30:00;100948.44;;;6.62;100.00
74075;BME280;62428;51.412;5.432;2023-11-21T00:32:25;100939.09;;;6.60;100.00
74075;BME280;62428;51.412;5.432;2023-11-21T00:34:51;100942.03;;;6.58;100.00
74075;BME280;62428;51.412;5.432;2023-11-21T00:37:16;100946.03;;;6.56;100.00
74075;BME280;62428;51.412;5.432;2023-11-21T00:39:41;100940.16;;;6.53;100.00
74075;BME280;62428;51.412;5.432;2023-11-21T00:42:07;100946.00;;;6.50;100.00
74075;BME280;62428;51.412;5.432;2023-11-21T00:44:33;100942.78;;;6.48;100.00
74075;BME280;62428;51.412;5.432;2023-11-21T00:46:59;100942.50;;;6.45;100.00
74075;BME280;62428;51.412;5.432;2023-11-21T00:49:24;100941.44;;;6.41;100.00
74075;BME280;62428;51.412;5.432;2023-11-21T00:51:50;100947.28;;;6.38;100.00
74075;BME280;62428;51.412;5.432;2023-11-21T00:54:15;100952.34;;;6.34;100.00
74075;BME280;62428;51.412;5.432;2023-11-21T00:56:42;100947.22;;;6.27;100.00
74075;BME280;62428;51.412;5.432;2023-11-21T00:59:08;100956.56;;;6.25;100.00
74075;BME280;62428;51.412;5.432;2023-11-21T01:01:33;100955.19;;;6.22;100.00
74075;BME280;62428;51.412;5.432;2023-11-21T01:03:58;100957.59;;;6.19;100.00
74075;BME280;62428;51.412;5.432;2023-11-21T01:06:24;100961.84;;;6.14;100.00
74075;BME280;62428;51.412;5.432;2023-11-21T01:08:49;100957.28;;;6.10;100.00
74075;BME280;62428;51.412;5.432;2023-11-21T01:11:15;100971.94;;;6.07;100.00
74075;BME280;62428;51.412;5.432;2023-11-21T01:13:40;100975.94;;;6.05;100.00
74075;BME280;62428;51.412;5.432;2023-11-21T01:16:06;100969.22;;;6.02;100.00
74075;BME280;62428;51.412;5.432;2023-11-21T01:18:32;100979.59;;;5.99;100.00
74075;BME280;62428;51.412;5.432;2023-11-21T01:20:58;100981.97;;;5.95;100.00
74075;BME280;62428;51.412;5.432;2023-11-21T01:23:25;100980.63;;;5.92;100.00
74075;BME280;62428;51.412;5.432;2023-11-21T01:25:50;100979.53;;;5.88;100.00
74075;BME280;62428;51.412;5.432;2023-11-21T01:28:17;100988.03;;;5.85;100.00
74075;BME280;62428;51.412;5.432;2023-11-21T01:30:42;100986.69;;;5.83;100.00
74075;BME280;62428;51.412;5.432;2023-11-21T01:33:07;100984.53;;;5.80;100.00
74075;BME280;62428;51.412;5.432;2023-11-21T01:35:33;100989.31;;;5.77;100.00
74075;BME280;62428;51.412;5.432;2023-11-21T01:37:59;100991.19;;;5.77;100.00
74075;BME280;62428;51.412;5.432;2023-11-21T01:40:24;100994.09;;;5.75;100.00
74075;BME280;62428;51.412;5.432;2023-11-21T01:42:50;101003.16;;;5.74;100.00
74075;BME280;62428;51.412;5.432;2023-11-21T01:45:15;101001.81;;;5.72;100.00
74075;BME280;62428;51.412;5.432;2023-11-21T01:47:41;101003.09;;;5.69;100.00
74075;BME280;62428;51.412;5.432;2023-11-21T01:50:08;101006.06;;;5.68;100.00
74075;BME280;62428;51.412;5.432;2023-11-21T01:52:38;101005.47;;;5.66;100.00
74075;BME280;62428;51.412;5.432;2023-11-21T01:55:06;100996.69;;;5.65;100.00
74075;BME280;62428;51.412;5.432;2023-11-21T01:57:33;101000.97;;;5.66;100.00
74075;BME280;62428;51.412;5.432;2023-11-21T02:00:01;100994.31;;;5.69;100.00
74075;BME280;62428;51.412;5.432;2023-11-21T02:02:36;100998.34;;;5.71;100.00
74075;BME280;62428;51.412;5.432;2023-11-21T02:05:01;100993.81;;;5.72;100.00
74075;BME280;62428;51.412;5.432;2023-11-21T02:07:27;100997.03;;;5.74;100.00
74075;BME280;62428;51.412;5.432;2023-11-21T02:09:52;101000.22;;;5.76;100.00
74075;BME280;62428;51.412;5.432;2023-11-21T02:12:17;101007.47;;;5.81;100.00
74075;BME280;62428;51.412;5.432;2023-11-21T02:14:42;101012.28;;;5.84;100.00
74075;BME280;62428;51.412;5.432;2023-11-21T02:17:09;101015.00;;;5.89;100.00
74075;BME280;62428;51.412;5.432;2023-11-21T02:19:35;101012.06;;;5.90;100.00
74075;BME280;62428;51.412;5.432;2023-11-21T02:22:00;101017.41;;;5.90;100.00
74075;BME280;62428;51.412;5.432;2023-11-21T02:24:28;101020.88;;;5.91;100.00
74075;BME280;62428;51.412;5.432;2023-11-21T02:26:54;101023.78;;;5.89;100.00
74075;BME280;62428;51.412;5.432;2023-11-21T02:29:20;101035.28;;;5.90;100.00
74075;BME280;62428;51.412;5.432;2023-11-21T02:31:55;101027.56;;;5.93;100.00
74075;BME280;62428;51.412;5.432;2023-11-21T02:34:22;101037.75;;;5.96;100.00
74075;BME280;62428;51.412;5.432;2023-11-21T02:36:48;101041.78;;;5.99;100.00
74075;BME280;62428;51.412;5.432;2023-11-21T02:39:17;101042.81;;;5.98;100.00
74075;BME280;62428;51.412;5.432;2023-11-21T02:41:43;101042.03;;;5.97;100.00
74075;BME280;62428;51.412;5.432;2023-11-21T02:44:09;101050.81;;;5.98;100.00
74075;BME280;62428;51.412;5.432;2023-11-21T02:46:35;101046.28;;;5.99;100.00
74075;BME280;62428;51.412;5.432;2023-11-21T02:49:02;101049.25;;;5.97;100.00
74075;BME280;62428;51.412;5.432;2023-11-21T02:51:28;101047.38;;;5.97;100.00
74075;BME280;62428;51.412;5.432;2023-11-21T02:53:53;101044.69;;;5.97;100.00
74075;BME280;62428;51.412;5.432;2023-11-21T02:56:19;101033.47;;;5.95;100.00
74075;BME280;62428;51.412;5.432;2023-11-21T02:58:45;101042.28;;;5.96;100.00
74075;BME280;62428;51.412;5.432;2023-11-21T03:01:10;101041.50;;;5.95;100.00
74075;BME280;62428;51.412;5.432;2023-11-21T03:03:37;101042.28;;;5.96;100.00
74075;BME280;62428;51.412;5.432;2023-11-21T03:06:04;101036.94;;;5.96;100.00
74075;BME280;62428;51.412;5.432;2023-11-21T03:08:29;101043.03;;;5.91;100.00
74075;BME280;62428;51.412;5.432;2023-11-21T03:10:55;101048.38;;;5.91;100.00
74075;BME280;62428;51.412;5.432;2023-11-21T03:13:21;101044.88;;;5.91;100.00
74075;BME280;62428;51.412;5.432;2023-11-21T03:15:46;101044.88;;;5.91;100.00
74075;BME280;62428;51.412;5.432;2023-11-21T03:18:12;101047.53;;;5.91;100.00
74075;BME280;62428;51.412;5.432;2023-11-21T03:20:38;101052.06;;;5.90;100.00
74075;BME280;62428;51.412;5.432;2023-11-21T03:23:04;101054.75;;;5.90;100.00
74075;BME280;62428;51.412;5.432;2023-11-21T03:25:30;101055.53;;;5.91;100.00
74075;BME280;62428;51.412;5.432;2023-11-21T03:27:56;101046.50;;;5.92;100.00
74075;BME280;62428;51.412;5.432;2023-11-21T03:30:21;101062.25;;;5.93;100.00
74075;BME280;62428;51.412;5.432;2023-11-21T03:32:47;101060.38;;;5.94;100.00
74075;BME280;62428;51.412;5.432;2023-11-21T03:35:12;101053.16;;;5.94;100.00
74075;BME280;62428;51.412;5.432;2023-11-21T03:37:38;101061.97;;;5.95;100.00
74075;BME280;62428;51.412;5.432;2023-11-21T03:40:07;101064.63;;;5.95;100.00
74075;BME280;62428;51.412;5.432;2023-11-21T03:42:33;101067.31;;;5.95;100.00
74075;BME280;62428;51.412;5.432;2023-11-21T03:44:58;101068.38;;;5.94;100.00
74075;BME280;62428;51.412;5.432;2023-11-21T03:47:24;101063.03;;;5.94;100.00
74075;BME280;62428;51.412;5.432;2023-11-21T03:49:49;101065.41;;;5.90;100.00
74075;BME280;62428;51.412;5.432;2023-11-21T03:52:15;101062.19;;;5.88;100.00
74075;BME280;62428;51.412;5.432;2023-11-21T03:54:40;101069.41;;;5.88;100.00
74075;BME280;62428;51.412;5.432;2023-11-21T03:57:05;101061.09;;;5.84;100.00
74075;BME280;62428;51.412;5.432;2023-11-21T03:59:31;101066.44;;;5.84;100.00
74075;BME280;62428;51.412;5.432;2023-11-21T04:01:56;101074.44;;;5.84;100.00
74075;BME280;62428;51.412;5.432;2023-11-21T04:04:22;101066.69;;;5.83;100.00
74075;BME280;62428;51.412;5.432;2023-11-21T04:06:47;101073.88;;;5.82;100.00
74075;BME280;62428;51.412;5.432;2023-11-21T04:09:13;101081.88;;;5.82;100.00
74075;BME280;62428;51.412;5.432;2023-11-21T04:11:38;101078.66;;;5.80;100.00
74075;BME280;62428;51.412;5.432;2023-11-21T04:14:03;101090.94;;;5.81;100.00
74075;BME280;62428;51.412;5.432;2023-11-21T04:16:29;101091.97;;;5.80;100.00
74075;BME280;62428;51.412;5.432;2023-11-21T04:18:54;101089.56;;;5.78;100.00
74075;BME280;62428;51.412;5.432;2023-11-21T04:21:19;101096.22;;;5.76;100.00
74075;BME280;62428;51.412;5.432;2023-11-21T04:23:45;101096.22;;;5.76;100.00
74075;BME280;62428;51.412;5.432;2023-11-21T04:26:10;101107.13;;;5.74;100.00
74075;BME280;62428;51.412;5.432;2023-11-21T04:28:35;101112.72;;;5.73;100.00
74075;BME280;62428;51.412;5.432;2023-11-21T04:31:01;101112.97;;;5.71;100.00
74075;BME280;62428;51.412;5.432;2023-11-21T04:33:27;101112.41;;;5.69;100.00
74075;BME280;62428;51.412;5.432;2023-11-21T04:35:53;101114.28;;;5.69;100.00
74075;BME280;62428;51.412;5.432;2023-11-21T04:38:18;101116.94;;;5.69;100.00
74075;BME280;62428;51.412;5.432;2023-11-21T04:40:44;101128.69;;;5.68;100.00
74075;BME280;62428;51.412;5.432;2023-11-21T04:43:09;101131.34;;;5.68;100.00
74075;BME280;62428;51.412;5.432;2023-11-21T04:45:34;101132.63;;;5.65;100.00
74075;BME280;62428;51.412;5.432;2023-11-21T04:48:00;101134.25;;;5.66;100.00
74075;BME280;62428;51.412;5.432;2023-11-21T04:50:25;101141.19;;;5.67;100.00
74075;BME280;62428;51.412;5.432;2023-11-21T04:52:52;101147.06;;;5.69;100.00
74075;BME280;62428;51.412;5.432;2023-11-21T04:55:17;101142.56;;;5.70;100.00
74075;BME280;62428;51.412;5.432;2023-11-21T04:57:43;101152.97;;;5.71;100.00
74075;BME280;62428;51.412;5.432;2023-11-21T05:00:11;101153.78;;;5.72;100.00
74075;BME280;62428;51.412;5.432;2023-11-21T05:02:37;101153.53;;;5.73;100.00
74075;BME280;62428;51.412;5.432;2023-11-21T05:05:03;101143.91;;;5.72;100.00
74075;BME280;62428;51.412;5.432;2023-11-21T05:07:31;101144.97;;;5.71;100.00
74075;BME280;62428;51.412;5.432;2023-11-21T05:09:57;101157.78;;;5.74;100.00
74075;BME280;62428;51.412;5.432;2023-11-21T05:12:22;101154.31;;;5.74;100.00
74075;BME280;62428;51.412;5.432;2023-11-21T05:14:51;101158.63;;;5.75;100.00
74075;BME280;62428;51.412;5.432;2023-11-21T05:17:16;101160.22;;;5.76;100.00
74075;BME280;62428;51.412;5.432;2023-11-21T05:19:42;101155.94;;;5.75;100.00
74075;BME280;62428;51.412;5.432;2023-11-21T05:22:08;101148.44;;;5.72;100.00
74075;BME280;62428;51.412;5.432;2023-11-21T05:24:33;101154.56;;;5.72;100.00
74075;BME280;62428;51.412;5.432;2023-11-21T05:27:00;101158.31;;;5.71;100.00
74075;BME280;62428;51.412;5.432;2023-11-21T05:29:25;101159.91;;;5.72;100.00
74075;BME280;62428;51.412;5.432;2023-11-21T05:31:51;101164.44;;;5.72;100.00
74075;BME280;62428;51.412;5.432;2023-11-21T05:34:16;101170.81;;;5.71;100.00
74075;BME280;62428;51.412;5.432;2023-11-21T05:36:43;101176.16;;;5.71;100.00
74075;BME280;62428;51.412;5.432;2023-11-21T05:39:10;101184.97;;;5.71;100.00
74075;BME280;62428;51.412;5.432;2023-11-21T05:41:36;101176.69;;;5.73;100.00
74075;BME280;62428;51.412;5.432;2023-11-21T05:44:01;101183.41;;;5.75;100.00
74075;BME280;62428;51.412;5.432;2023-11-21T05:46:27;101179.66;;;5.76;100.00
74075;BME280;62428;51.412;5.432;2023-11-21T05:48:52;101189.03;;;5.79;100.00
74075;BME280;62428;51.412;5.432;2023-11-21T05:51:17;101188.81;;;5.81;100.00
74075;BME280;62428;51.412;5.432;2023-11-21T05:53:43;101187.72;;;5.82;100.00
74075;BME280;62428;51.412;5.432;2023-11-21T05:56:08;101195.47;;;5.83;100.00
74075;BME280;62428;51.412;5.432;2023-11-21T05:58:34;101191.50;;;5.86;100.00
74075;BME280;62428;51.412;5.432;2023-11-21T06:00:59;101196.03;;;5.85;100.00
74075;BME280;62428;51.412;5.432;2023-11-21T06:03:24;101203.78;;;5.87;100.00
74075;BME280;62428;51.412;5.432;2023-11-21T06:05:50;101201.13;;;5.87;100.00
74075;BME280;62428;51.412;5.432;2023-11-21T06:08:15;101205.41;;;5.88;100.00
74075;BME280;62428;51.412;5.432;2023-11-21T06:10:42;101210.22;;;5.91;100.00
74075;BME280;62428;51.412;5.432;2023-11-21T06:13:09;101221.72;;;5.91;100.00
74075;BME280;62428;51.412;5.432;2023-11-21T06:15:35;101221.72;;;5.91;100.00
74075;BME280;62428;51.412;5.432;2023-11-21T06:18:00;101226.78;;;5.93;100.00
74075;BME280;62428;51.412;5.432;2023-11-21T06:20:26;101225.72;;;5.94;100.00
74075;BME280;62428;51.412;5.432;2023-11-21T06:22:52;101225.72;;;5.94;100.00
74075;BME280;62428;51.412;5.432;2023-11-21T06:25:17;101228.19;;;5.95;100.00
74075;BME280;62428;51.412;5.432;2023-11-21T06:27:45;101226.88;;;5.98;100.00
74075;BME280;62428;51.412;5.432;2023-11-21T06:30:11;101228.50;;;5.99;100.00
74075;BME280;62428;51.412;5.432;2023-11-21T06:32:37;101234.38;;;6.01;100.00
74075;BME280;62428;51.412;5.432;2023-11-21T06:35:04;101238.38;;;6.04;100.00
74075;BME280;62428;51.412;5.432;2023-11-21T06:37:30;101240.81;;;6.05;100.00
74075;BME280;62428;51.412;5.432;2023-11-21T06:39:57;101242.44;;;6.06;100.00
74075;BME280;62428;51.412;5.432;2023-11-21T06:42:23;101231.53;;;6.08;100.00
74075;BME280;62428;51.412;5.432;2023-11-21T06:44:49;101236.56;;;6.09;100.00
74075;BME280;62428;51.412;5.432;2023-11-21T06:47:17;101240.63;;;6.12;100.00
74075;BME280;62428;51.412;5.432;2023-11-21T06:49:43;101240.38;;;6.13;100.00
74075;BME280;62428;51.412;5.432;2023-11-21T06:52:08;101247.31;;;6.14;100.00
74075;BME280;62428;51.412;5.432;2023-11-21T06:54:34;101254.25;;;6.15;100.00
74075;BME280;62428;51.412;5.432;2023-11-21T06:57:00;101252.41;;;6.16;100.00
74075;BME280;62428;51.412;5.432;2023-11-21T06:59:25;101248.69;;;6.17;100.00
74075;BME280;62428;51.412;5.432;2023-11-21T07:01:51;101261.75;;;6.19;100.00
74075;BME280;62428;51.412;5.432;2023-11-21T07:04:16;101252.69;;;6.20;100.00
74075;BME280;62428;51.412;5.432;2023-11-21T07:06:41;101259.38;;;6.22;100.00
74075;BME280;62428;51.412;5.432;2023-11-21T07:09:08;101275.97;;;6.24;100.00
74075;BME280;62428;51.412;5.432;2023-11-21T07:11:35;101269.56;;;6.25;100.00
74075;BME280;62428;51.412;5.432;2023-11-21T07:14:00;101271.19;;;6.26;100.00
74075;BME280;62428;51.412;5.432;2023-11-21T07:16:35;101278.91;;;6.28;100.00
74075;BME280;62428;51.412;5.432;2023-11-21T07:19:05;101277.63;;;6.30;100.00
74075;BME280;62428;51.412;5.432;2023-11-21T07:21:34;101290.72;;;6.32;100.00
74075;BME280;62428;51.412;5.432;2023-11-21T07:24:00;101292.31;;;6.33;100.00
74075;BME280;62428;51.412;5.432;2023-11-21T07:26:29;101298.19;;;6.35;100.00
74075;BME280;62428;51.412;5.432;2023-11-21T07:28:55;101305.97;;;6.37;100.00
74075;BME280;62428;51.412;5.432;2023-11-21T07:31:21;101304.66;;;6.39;100.00
74075;BME280;62428;51.412;5.432;2023-11-21T07:33:47;101317.78;;;6.41;100.00
74075;BME280;62428;51.412;5.432;2023-11-21T07:36:13;101318.31;;;6.43;100.00
74075;BME280;62428;51.412;5.432;2023-11-21T07:38:39;101317.25;;;6.44;100.00
74075;BME280;62428;51.412;5.432;2023-11-21T07:41:05;101321.53;;;6.45;100.00
74075;BME280;62428;51.412;5.432;2023-11-21T07:43:33;101318.63;;;6.46;100.00
74075;BME280;62428;51.412;5.432;2023-11-21T07:46:01;101322.63;;;6.49;100.00
74075;BME280;62428;51.412;5.432;2023-11-21T07:48:28;101337.34;;;6.51;100.00
74075;BME280;62428;51.412;5.432;2023-11-21T07:50:53;101333.63;;;6.52;100.00
74075;BME280;62428;51.412;5.432;2023-11-21T07:53:19;101339.25;;;6.56;100.00
74075;BME280;62428;51.412;5.432;2023-11-21T07:55:44;101341.44;;;6.59;100.00
74075;BME280;62428;51.412;5.432;2023-11-21T07:58:12;101342.00;;;6.61;100.00
74075;BME280;62428;51.412;5.432;2023-11-21T08:00:38;101351.34;;;6.64;100.00
74075;BME280;62428;51.412;5.432;2023-11-21T08:03:04;101354.56;;;6.66;100.00
74075;BME280;62428;51.412;5.432;2023-11-21T08:05:31;101353.28;;;6.68;100.00
74075;BME280;62428;51.412;5.432;2023-11-21T08:07:56;101351.94;;;6.71;100.00
74075;BME280;62428;51.412;5.432;2023-11-21T08:10:21;101361.34;;;6.73;100.00
74075;BME280;62428;51.412;5.432;2023-11-21T08:12:47;101362.69;;;6.76;100.00
74075;BME280;62428;51.412;5.432;2023-11-21T08:15:13;101364.88;;;6.79;100.00
74075;BME280;62428;51.412;5.432;2023-11-21T08:17:39;101367.84;;;6.83;100.00
74075;BME280;62428;51.412;5.432;2023-11-21T08:20:05;101372.09;;;6.84;100.00
74075;BME280;62428;51.412;5.432;2023-11-21T08:22:31;101359.53;;;6.84;100.00
74075;BME280;62428;51.412;5.432;2023-11-21T08:24:57;101359.03;;;6.87;100.00
74075;BME280;62428;51.412;5.432;2023-11-21T08:27:23;101358.78;;;6.89;100.00
74075;BME280;62428;51.412;5.432;2023-11-21T08:29:48;101363.88;;;6.90;100.00
74075;BME280;62428;51.412;5.432;2023-11-21T08:32:13;101373.50;;;6.91;100.00
74075;BME280;62428;51.412;5.432;2023-11-21T08:34:40;101376.72;;;6.93;100.00
74075;BME280;62428;51.412;5.432;2023-11-21T08:37:08;101379.97;;;6.96;100.00
74075;BME280;62428;51.412;5.432;2023-11-21T08:39:33;101381.56;;;6.97;100.00
74075;BME280;62428;51.412;5.432;2023-11-21T08:41:58;101392.81;;;6.99;100.00
74075;BME280;62428;51.412;5.432;2023-11-21T08:44:24;101400.81;;;6.99;100.00
74075;BME280;62428;51.412;5.432;2023-11-21T08:46:50;101397.66;;;7.02;100.00
74075;BME280;62428;51.412;5.432;2023-11-21T08:49:15;101407.84;;;7.05;100.00
74075;BME280;62428;51.412;5.432;2023-11-21T08:51:41;101389.94;;;7.05;100.00
74075;BME280;62428;51.412;5.432;2023-11-21T08:54:06;101403.03;;;7.07;100.00
74075;BME280;62428;51.412;5.432;2023-11-21T08:56:34;101399.56;;;7.06;100.00
74075;BME280;62428;51.412;5.432;2023-11-21T08:59:00;101408.13;;;7.08;100.00
74075;BME280;62428;51.412;5.432;2023-11-21T09:01:27;101410.53;;;7.10;100.00
74075;BME280;62428;51.412;5.432;2023-11-21T09:03:53;101405.19;;;7.10;100.00
74075;BME280;62428;51.412;5.432;2023-11-21T09:06:18;101418.28;;;7.11;100.00
74075;BME280;62428;51.412;5.432;2023-11-21T09:08:44;101414.56;;;7.12;100.00
74075;BME280;62428;51.412;5.432;2023-11-21T09:11:09;101410.56;;;7.15;100.00
74075;BME280;62428;51.412;5.432;2023-11-21T09:13:35;101416.47;;;7.17;100.00
74075;BME280;62428;51.412;5.432;2023-11-21T09:16:01;101418.09;;;7.18;100.00
74075;BME280;62428;51.412;5.432;2023-11-21T09:18:26;101410.63;;;7.20;100.00
74075;BME280;62428;51.412;5.432;2023-11-21T09:20:52;101421.06;;;7.22;100.00
74075;BME280;62428;51.412;5.432;2023-11-21T09:23:17;101415.47;;;7.23;100.00
74075;BME280;62428;51.412;5.432;2023-11-21T09:25:43;101421.13;;;7.27;100.00
74075;BME280;62428;51.412;5.432;2023-11-21T09:28:11;101419.50;;;7.26;100.00
74075;BME280;62428;51.412;5.432;2023-11-21T09:30:37;101426.22;;;7.28;100.00
74075;BME280;62428;51.412;5.432;2023-11-21T09:33:03;101438.25;;;7.31;100.00
74075;BME280;62428;51.412;5.432;2023-11-21T09:35:33;101435.31;;;7.32;100.00
74075;BME280;62428;51.412;5.432;2023-11-21T09:37:59;101447.63;;;7.34;100.00
74075;BME280;62428;51.412;5.432;2023-11-21T09:40:26;101450.03;;;7.35;100.00
74075;BME280;62428;51.412;5.432;2023-11-21T09:42:55;101449.28;;;7.40;100.00
74075;BME280;62428;51.412;5.432;2023-11-21T09:45:29;101460.81;;;7.45;100.00
74075;BME280;62428;51.412;5.432;2023-11-21T09:47:59;101454.41;;;7.46;100.00
74075;BME280;62428;51.412;5.432;2023-11-21T09:50:25;101460.56;;;7.47;100.00
74075;BME280;62428;51.412;5.432;2023-11-21T09:55:30;101472.91;;;7.53;100.00
74075;BME280;62428;51.412;5.432;2023-11-21T09:58:02;101479.63;;;7.56;100.00
74075;BME280;62428;51.412;5.432;2023-11-21T10:00:28;101485.53;;;7.58;100.00
74075;BME280;62428;51.412;5.432;2023-11-21T10:02:57;101477.22;;;7.59;100.00
74075;BME280;62428;51.412;5.432;2023-11-21T10:05:23;101484.75;;;7.62;100.00
74075;BME280;62428;51.412;5.432;2023-11-21T10:07:49;101498.66;;;7.64;100.00
74075;BME280;62428;51.412;5.432;2023-11-21T10:10:18;101495.50;;;7.67;100.00
74075;BME280;62428;51.412;5.432;2023-11-21T10:12:49;101494.75;;;7.72;100.00
74075;BME280;62428;51.412;5.432;2023-11-21T10:15:21;101496.88;;;7.75;100.00
74075;BME280;62428;51.412;5.432;2023-11-21T10:17:48;101506.81;;;7.80;100.00
74075;BME280;62428;51.412;5.432;2023-11-21T10:20:14;101504.75;;;7.87;100.00
74075;BME280;62428;51.412;5.432;2023-11-21T10:22:41;101501.81;;;7.94;100.00
74075;BME280;62428;51.412;5.432;2023-11-21T10:25:08;101502.66;;;7.99;100.00
74075;BME280;62428;51.412;5.432;2023-11-21T10:27:34;101505.63;;;8.03;100.00
74075;BME280;62428;51.412;5.432;2023-11-21T10:30:03;101505.91;;;8.06;100.00
74075;BME280;62428;51.412;5.432;2023-11-21T10:32:29;101511.56;;;8.10;100.00
74075;BME280;62428;51.412;5.432;2023-11-21T10:34:58;101510.56;;;8.16;100.00
74075;BME280;62428;51.412;5.432;2023-11-21T10:37:25;101507.63;;;8.18;100.00
74075;BME280;62428;51.412;5.432;2023-11-21T10:39:57;101506.78;;;8.17;100.00
74075;BME280;62428;51.412;5.432;2023-11-21T10:42:23;101501.72;;;8.21;100.00
74075;BME280;62428;51.412;5.432;2023-11-21T10:44:49;101507.38;;;8.24;100.00
74075;BME280;62428;51.412;5.432;2023-11-21T10:47:15;101514.09;;;8.27;100.00
74075;BME280;62428;51.412;5.432;2023-11-21T10:49:41;101504.72;;;8.30;100.00
74075;BME280;62428;51.412;5.432;2023-11-21T10:52:06;101515.97;;;8.32;100.00
74075;BME280;62428;51.412;5.432;2023-11-21T10:54:31;101505.00;;;8.33;100.00
74075;BME280;62428;51.412;5.432;2023-11-21T10:56:59;101511.72;;;8.36;100.00
74075;BME280;62428;51.412;5.432;2023-11-21T10:59:29;101511.19;;;8.39;100.00
74075;BME280;62428;51.412;5.432;2023-11-21T11:01:57;101510.94;;;8.40;100.00
74075;BME280;62428;51.412;5.432;2023-11-21T11:04:24;101512.06;;;8.44;100.00
74075;BME280;62428;51.412;5.432;2023-11-21T11:06:57;101522.25;;;8.48;100.00
74075;BME280;62428;51.412;5.432;2023-11-21T11:09:22;101516.66;;;8.49;100.00
74075;BME280;62428;51.412;5.432;2023-11-21T11:11:48;101518.78;;;8.52;100.00
74075;BME280;62428;51.412;5.432;2023-11-21T11:14:14;101523.88;;;8.54;100.00
74075;BME280;62428;51.412;5.432;2023-11-21T11:16:41;101517.50;;;8.60;100.00
74075;BME280;62428;51.412;5.432;2023-11-21T11:19:08;101528.50;;;8.63;100.00
74075;BME280;62428;51.412;5.432;2023-11-21T11:21:43;101536.53;;;8.63;100.00
74075;BME280;62428;51.412;5.432;2023-11-21T11:35:11;101550.22;;;8.67;100.00
74075;BME280;62428;51.412;5.432;2023-11-21T11:37:42;101548.88;;;8.70;100.00
74075;BME280;62428;51.412;5.432;2023-11-21T11:40:08;101552.09;;;8.72;100.00
74075;BME280;62428;51.412;5.432;2023-11-21T11:42:34;101563.06;;;8.70;100.00
74075;BME280;62428;51.412;5.432;2023-11-21T11:44:59;101547.81;;;8.71;100.00
74075;BME280;62428;51.412;5.432;2023-11-21T11:47:29;101546.72;;;8.72;100.00
74075;BME280;62428;51.412;5.432;2023-11-21T11:52:49;101544.59;;;8.74;100.00
74075;BME280;62428;51.412;5.432;2023-11-21T11:55:18;101549.97;;;8.79;100.00
74075;BME280;62428;51.412;5.432;2023-11-21T11:57:46;101564.72;;;8.81;100.00
74075;BME280;62428;51.412;5.432;2023-11-21T12:03:01;101571.44;;;8.84;100.00
74075;BME280;62428;51.412;5.432;2023-11-21T12:05:29;101572.50;;;8.83;100.00
74075;BME280;62428;51.412;5.432;2023-11-21T12:08:04;101577.06;;;8.82;100.00
74075;BME280;62428;51.412;5.432;2023-11-21T12:10:31;101585.09;;;8.82;100.00
74075;BME280;62428;51.412;5.432;2023-11-21T12:12:58;101591.25;;;8.83;100.00
74075;BME280;62428;51.412;5.432;2023-11-21T12:15:25;101599.03;;;8.84;100.00
74075;BME280;62428;51.412;5.432;2023-11-21T12:17:51;101590.47;;;8.82;100.00
74075;BME280;62428;51.412;5.432;2023-11-21T12:20:22;101596.63;;;8.83;100.00
74075;BME280;62428;51.412;5.432;2023-11-21T12:22:50;101593.94;;;8.83;100.00
74075;BME280;62428;51.412;5.432;2023-11-21T12:25:18;101600.13;;;8.83;100.00
74075;BME280;62428;51.412;5.432;2023-11-21T12:27:48;101607.06;;;8.84;100.00
74075;BME280;62428;51.412;5.432;2023-11-21T12:30:19;101599.84;;;8.85;100.00
74075;BME280;62428;51.412;5.432;2023-11-21T12:32:47;101610.31;;;8.87;100.00
74075;BME280;62428;51.412;5.432;2023-11-21T12:35:13;101618.34;;;8.87;100.00
74075;BME280;62428;51.412;5.432;2023-11-21T12:37:40;101606.03;;;8.85;100.00
74075;BME280;62428;51.412;5.432;2023-11-21T12:40:08;101612.19;;;8.86;100.00
74075;BME280;62428;51.412;5.432;2023-11-21T12:42:37;101621.28;;;8.85;100.00
74075;BME280;62428;51.412;5.432;2023-11-21T12:47:35;101623.16;;;8.84;100.00
74075;BME280;62428;51.412;5.432;2023-11-21T12:50:02;101617.25;;;8.82;100.00
74075;BME280;62428;51.412;5.432;2023-11-21T12:52:28;101616.75;;;8.85;100.00
74075;BME280;62428;51.412;5.432;2023-11-21T12:54:53;101615.91;;;8.85;100.00
74075;BME280;62428;51.412;5.432;2023-11-21T12:57:19;101620.22;;;8.86;100.00
74075;BME280;62428;51.412;5.432;2023-11-21T12:59:45;101622.66;;;8.88;100.00
74075;BME280;62428;51.412;5.432;2023-11-21T13:02:13;101624.25;;;8.89;100.00
74075;BME280;62428;51.412;5.432;2023-11-21T13:04:40;101618.09;;;8.88;100.00
74075;BME280;62428;51.412;5.432;2023-11-21T13:07:06;101630.44;;;8.89;100.00